sensor_id;sensor_type;location;lat;lon;timestamp;pressure;altitude;pressure_sealevel;temperature;humidity
25510;BME280;13413;52.336;21.200;2023-01-25T00:01:07;102615.53;;;5.67;64.40
25510;BME280;13413;52.336;21.200;2023-01-25T00:04:01;102611.88;;;5.67;64.22
25510;BME280;13413;52.336;21.200;2023-01-25T00:06:55;102608.40;;;5.66;64.25
25510;BME280;13413;52.336;21.200;2023-01-25T00:09:49;102606.64;;;5.63;63.88
25510;BME280;13413;52.336;21.200;2023-01-25T00:12:43;102606.07;;;5.58;63.77
25510;BME280;13413;52.336;21.200;2023-01-25T00:15:37;102607.24;;;5.53;63.77
25510;BME280;13413;52.336;21.200;2023-01-25T00:18:31;102600.73;;;5.50;63.76
25510;BME280;13413;52.336;21.200;2023-01-25T00:21:26;102593.81;;;5.51;63.83
25510;BME280;13413;52.336;21.200;2023-01-25T00:24:19;102589.96;;;5.48;63.68
25510;BME280;13413;52.336;21.200;2023-01-25T00:27:13;102587.10;;;5.43;63.53
25510;BME280;13413;52.336;21.200;2023-01-25T00:30:09;102583.71;;;5.41;63.79
25510;BME280;13413;52.336;21.200;2023-01-25T00:36:38;102578.27;;;5.38;63.23
25510;BME280;13413;52.336;21.200;2023-01-25T00:39:32;102577.71;;;5.32;62.99
25510;BME280;13413;52.336;21.200;2023-01-25T00:42:40;102576.27;;;5.30;63.07
25510;BME280;13413;52.336;21.200;2023-01-25T00:45:34;102573.75;;;5.31;63.21
25510;BME280;13413;52.336;21.200;2023-01-25T00:48:28;102570.34;;;5.30;62.89
25510;BME280;13413;52.336;21.200;2023-01-25T00:51:23;102568.97;;;5.23;62.70
25510;BME280;13413;52.336;21.200;2023-01-25T00:54:17;102561.16;;;5.06;62.60
25510;BME280;13413;52.336;21.200;2023-01-25T00:57:12;102558.91;;;5.08;63.04
25510;BME280;13413;52.336;21.200;2023-01-25T01:00:09;102561.96;;;5.13;63.04
25510;BME280;13413;52.336;21.200;2023-01-25T01:03:03;102565.83;;;5.16;62.69
25510;BME280;13413;52.336;21.200;2023-01-25T01:06:05;102562.00;;;5.12;62.60
25510;BME280;13413;52.336;21.200;2023-01-25T01:08:59;102557.66;;;5.15;62.58
25510;BME280;13413;52.336;21.200;2023-01-25T01:11:53;102557.29;;;5.12;62.39
25510;BME280;13413;52.336;21.200;2023-01-25T01:14:47;102555.05;;;5.08;62.41
25510;BME280;13413;52.336;21.200;2023-01-25T01:17:39;102555.42;;;5.08;62.82
25510;BME280;13413;52.336;21.200;2023-01-25T01:29:18;102561.99;;;5.12;62.36
25510;BME280;13413;52.336;21.200;2023-01-25T01:32:12;102559.88;;;5.09;62.43
25510;BME280;13413;52.336;21.200;2023-01-25T01:35:07;102555.19;;;5.09;61.95
25510;BME280;13413;52.336;21.200;2023-01-25T01:38:01;102550.69;;;5.02;61.91
25510;BME280;13413;52.336;21.200;2023-01-25T01:40:56;102546.55;;;4.94;61.76
25510;BME280;13413;52.336;21.200;2023-01-25T01:43:50;102546.92;;;4.91;62.27
25510;BME280;13413;52.336;21.200;2023-01-25T01:46:43;102547.77;;;5.01;62.59
25510;BME280;13413;52.336;21.200;2023-01-25T01:49:40;102548.95;;;5.01;61.94
25510;BME280;13413;52.336;21.200;2023-01-25T01:52:36;102547.18;;;4.95;61.91
25510;BME280;13413;52.336;21.200;2023-01-25T01:55:31;102544.55;;;4.93;61.70
25510;BME280;13413;52.336;21.200;2023-01-25T01:58:24;102543.03;;;4.85;61.75
25510;BME280;13413;52.336;21.200;2023-01-25T02:01:19;102542.87;;;4.85;61.84
25510;BME280;13413;52.336;21.200;2023-01-25T02:04:13;102535.43;;;4.83;61.57
25510;BME280;13413;52.336;21.200;2023-01-25T02:07:12;102533.40;;;4.85;61.96
25510;BME280;13413;52.336;21.200;2023-01-25T02:10:10;102529.98;;;4.87;62.02
25510;BME280;13413;52.336;21.200;2023-01-25T02:13:05;102527.05;;;4.83;61.58
25510;BME280;13413;52.336;21.200;2023-01-25T02:15:59;102519.05;;;4.78;61.92
25510;BME280;13413;52.336;21.200;2023-01-25T02:18:55;102517.17;;;4.84;61.79
25510;BME280;13413;52.336;21.200;2023-01-25T02:21:49;102513.81;;;4.87;62.12
25510;BME280;13413;52.336;21.200;2023-01-25T02:24:55;102517.11;;;4.88;61.72
25510;BME280;13413;52.336;21.200;2023-01-25T02:27:52;102521.02;;;4.84;61.42
25510;BME280;13413;52.336;21.200;2023-01-25T02:30:48;102521.29;;;4.79;61.65
25510;BME280;13413;52.336;21.200;2023-01-25T02:33:42;102522.75;;;4.78;61.68
25510;BME280;13413;52.336;21.200;2023-01-25T02:36:37;102519.68;;;4.77;61.68
25510;BME280;13413;52.336;21.200;2023-01-25T02:39:31;102517.29;;;4.76;61.71
25510;BME280;13413;52.336;21.200;2023-01-25T02:42:25;102512.17;;;4.73;61.76
25510;BME280;13413;52.336;21.200;2023-01-25T02:45:26;102509.45;;;4.71;61.77
25510;BME280;13413;52.336;21.200;2023-01-25T02:48:22;102505.74;;;4.72;61.90
25510;BME280;13413;52.336;21.200;2023-01-25T02:51:16;102502.92;;;4.72;61.77
25510;BME280;13413;52.336;21.200;2023-01-25T02:54:12;102496.55;;;4.70;61.60
25510;BME280;13413;52.336;21.200;2023-01-25T02:57:07;102494.11;;;4.67;61.43
25510;BME280;13413;52.336;21.200;2023-01-25T03:00:01;102488.52;;;4.67;61.62
25510;BME280;13413;52.336;21.200;2023-01-25T03:02:55;102483.99;;;4.62;61.07
25510;BME280;13413;52.336;21.200;2023-01-25T03:05:49;102486.66;;;4.56;61.52
25510;BME280;13413;52.336;21.200;2023-01-25T03:08:43;102481.02;;;4.56;61.72
25510;BME280;13413;52.336;21.200;2023-01-25T03:11:37;102469.94;;;4.57;61.44
25510;BME280;13413;52.336;21.200;2023-01-25T03:14:31;102463.98;;;4.51;61.14
25510;BME280;13413;52.336;21.200;2023-01-25T03:17:25;102463.65;;;4.41;61.21
25510;BME280;13413;52.336;21.200;2023-01-25T03:20:19;102463.77;;;4.39;61.31
25510;BME280;13413;52.336;21.200;2023-01-25T03:23:13;102457.23;;;4.34;61.33
25510;BME280;13413;52.336;21.200;2023-01-25T03:26:09;102465.02;;;4.30;61.58
25510;BME280;13413;52.336;21.200;2023-01-25T03:29:04;102466.83;;;4.35;61.72
25510;BME280;13413;52.336;21.200;2023-01-25T03:31:58;102447.02;;;4.32;61.43
25510;BME280;13413;52.336;21.200;2023-01-25T03:34:52;102458.27;;;4.31;61.54
25510;BME280;13413;52.336;21.200;2023-01-25T03:37:46;102466.30;;;4.34;61.42
25510;BME280;13413;52.336;21.200;2023-01-25T03:40:38;102459.73;;;4.32;61.58
25510;BME280;13413;52.336;21.200;2023-01-25T03:49:05;102453.55;;;4.40;61.52
25510;BME280;13413;52.336;21.200;2023-01-25T03:52:02;102456.98;;;4.35;61.70
25510;BME280;13413;52.336;21.200;2023-01-25T03:54:56;102441.11;;;4.37;61.58
25510;BME280;13413;52.336;21.200;2023-01-25T03:57:50;102441.39;;;4.35;61.36
25510;BME280;13413;52.336;21.200;2023-01-25T04:00:44;102444.56;;;4.32;61.44
25510;BME280;13413;52.336;21.200;2023-01-25T04:03:38;102442.76;;;4.32;61.44
25510;BME280;13413;52.336;21.200;2023-01-25T04:09:26;102437.13;;;4.43;61.48
25510;BME280;13413;52.336;21.200;2023-01-25T04:12:20;102436.27;;;4.42;61.57
25510;BME280;13413;52.336;21.200;2023-01-25T04:15:14;102431.38;;;4.39;61.35
25510;BME280;13413;52.336;21.200;2023-01-25T04:18:08;102428.13;;;4.34;61.46
25510;BME280;13413;52.336;21.200;2023-01-25T04:21:02;102428.23;;;4.36;61.36
25510;BME280;13413;52.336;21.200;2023-01-25T04:23:56;102426.17;;;4.38;61.67
25510;BME280;13413;52.336;21.200;2023-01-25T04:26:50;102431.34;;;4.39;61.65
25510;BME280;13413;52.336;21.200;2023-01-25T04:29:44;102434.79;;;4.38;61.44
25510;BME280;13413;52.336;21.200;2023-01-25T04:32:38;102429.00;;;4.38;61.47
25510;BME280;13413;52.336;21.200;2023-01-25T04:35:32;102422.50;;;4.38;61.48
25510;BME280;13413;52.336;21.200;2023-01-25T04:38:26;102421.83;;;4.37;61.46
25510;BME280;13413;52.336;21.200;2023-01-25T04:41:20;102422.40;;;4.33;61.41
25510;BME280;13413;52.336;21.200;2023-01-25T04:44:14;102416.64;;;4.30;61.36
25510;BME280;13413;52.336;21.200;2023-01-25T04:47:08;102419.77;;;4.30;61.60
25510;BME280;13413;52.336;21.200;2023-01-25T04:50:02;102420.28;;;4.24;61.12
25510;BME280;13413;52.336;21.200;2023-01-25T04:52:56;102422.88;;;4.15;61.38
25510;BME280;13413;52.336;21.200;2023-01-25T04:55:50;102421.05;;;4.10;61.24
25510;BME280;13413;52.336;21.200;2023-01-25T04:58:44;102419.83;;;4.07;61.19
25510;BME280;13413;52.336;21.200;2023-01-25T05:01:38;102420.23;;;4.09;61.76
25510;BME280;13413;52.336;21.200;2023-01-25T05:04:32;102421.49;;;4.08;61.62
25510;BME280;13413;52.336;21.200;2023-01-25T05:07:26;102419.18;;;4.03;61.34
25510;BME280;13413;52.336;21.200;2023-01-25T05:10:20;102413.39;;;3.97;61.54
25510;BME280;13413;52.336;21.200;2023-01-25T05:13:27;102409.69;;;3.97;61.35
25510;BME280;13413;52.336;21.200;2023-01-25T05:16:22;102406.16;;;3.98;61.37
25510;BME280;13413;52.336;21.200;2023-01-25T05:19:15;102410.56;;;3.91;61.45
25510;BME280;13413;52.336;21.200;2023-01-25T05:22:13;102406.77;;;3.86;61.08
25510;BME280;13413;52.336;21.200;2023-01-25T05:25:26;102408.00;;;3.83;61.09
25510;BME280;13413;52.336;21.200;2023-01-25T05:28:20;102407.58;;;3.81;61.21
25510;BME280;13413;52.336;21.200;2023-01-25T05:31:14;102405.42;;;3.76;61.18
25510;BME280;13413;52.336;21.200;2023-01-25T05:34:08;102406.83;;;3.65;60.97
25510;BME280;13413;52.336;21.200;2023-01-25T05:37:03;102403.85;;;3.59;61.15
25510;BME280;13413;52.336;21.200;2023-01-25T05:39:57;102397.99;;;3.57;61.33
25510;BME280;13413;52.336;21.200;2023-01-25T05:42:56;102396.72;;;3.58;61.13
25510;BME280;13413;52.336;21.200;2023-01-25T05:45:53;102397.67;;;3.60;61.41
25510;BME280;13413;52.336;21.200;2023-01-25T05:48:49;102394.84;;;3.64;61.32
25510;BME280;13413;52.336;21.200;2023-01-25T05:51:43;102392.08;;;3.60;61.16
25510;BME280;13413;52.336;21.200;2023-01-25T05:54:38;102386.05;;;3.55;61.01
25510;BME280;13413;52.336;21.200;2023-01-25T05:57:31;102387.99;;;3.55;60.93
25510;BME280;13413;52.336;21.200;2023-01-25T06:00:24;102383.48;;;3.54;61.30
25510;BME280;13413;52.336;21.200;2023-01-25T06:08:57;102380.58;;;3.56;61.17
25510;BME280;13413;52.336;21.200;2023-01-25T06:11:51;102385.29;;;3.50;61.07
25510;BME280;13413;52.336;21.200;2023-01-25T06:14:45;102383.70;;;3.46;61.02
25510;BME280;13413;52.336;21.200;2023-01-25T06:17:39;102386.44;;;3.48;61.35
25510;BME280;13413;52.336;21.200;2023-01-25T06:20:33;102386.13;;;3.44;61.01
25510;BME280;13413;52.336;21.200;2023-01-25T06:23:27;102391.60;;;3.43;61.25
25510;BME280;13413;52.336;21.200;2023-01-25T06:26:21;102391.13;;;3.45;61.26
25510;BME280;13413;52.336;21.200;2023-01-25T06:29:15;102388.45;;;3.46;61.47
25510;BME280;13413;52.336;21.200;2023-01-25T06:32:09;102384.73;;;3.47;61.17
25510;BME280;13413;52.336;21.200;2023-01-25T06:35:04;102382.73;;;3.42;61.15
25510;BME280;13413;52.336;21.200;2023-01-25T06:37:57;102378.90;;;3.35;60.88
25510;BME280;13413;52.336;21.200;2023-01-25T06:40:51;102380.20;;;3.34;61.43
25510;BME280;13413;52.336;21.200;2023-01-25T06:43:45;102375.33;;;3.39;61.45
25510;BME280;13413;52.336;21.200;2023-01-25T06:46:40;102370.46;;;3.45;61.32
25510;BME280;13413;52.336;21.200;2023-01-25T06:49:34;102366.48;;;3.48;61.07
25510;BME280;13413;52.336;21.200;2023-01-25T06:52:28;102364.63;;;3.40;61.36
25510;BME280;13413;52.336;21.200;2023-01-25T06:55:22;102359.64;;;3.42;61.52
25510;BME280;13413;52.336;21.200;2023-01-25T06:58:16;102362.09;;;3.52;61.50
25510;BME280;13413;52.336;21.200;2023-01-25T07:01:13;102364.91;;;3.58;61.32
25510;BME280;13413;52.336;21.200;2023-01-25T07:04:09;102360.36;;;3.55;61.03
25510;BME280;13413;52.336;21.200;2023-01-25T07:07:07;102359.38;;;3.50;61.00
25510;BME280;13413;52.336;21.200;2023-01-25T07:10:01;102358.49;;;3.47;61.16
25510;BME280;13413;52.336;21.200;2023-01-25T07:12:55;102353.86;;;3.39;61.00
25510;BME280;13413;52.336;21.200;2023-01-25T07:15:54;102346.48;;;3.40;61.38
25510;BME280;13413;52.336;21.200;2023-01-25T07:18:49;102352.17;;;3.41;61.02
25510;BME280;13413;52.336;21.200;2023-01-25T07:21:44;102357.09;;;3.37;61.02
25510;BME280;13413;52.336;21.200;2023-01-25T07:24:41;102348.81;;;3.35;61.23
25510;BME280;13413;52.336;21.200;2023-01-25T07:27:35;102349.54;;;3.35;61.35
25510;BME280;13413;52.336;21.200;2023-01-25T07:30:29;102349.90;;;3.34;61.24
25510;BME280;13413;52.336;21.200;2023-01-25T07:33:23;102345.27;;;3.36;61.40
25510;BME280;13413;52.336;21.200;2023-01-25T07:36:18;102350.66;;;3.37;61.09
25510;BME280;13413;52.336;21.200;2023-01-25T07:39:13;102346.83;;;3.33;61.17
25510;BME280;13413;52.336;21.200;2023-01-25T07:42:07;102345.36;;;3.21;61.31
25510;BME280;13413;52.336;21.200;2023-01-25T07:45:01;102342.76;;;3.17;61.58
25510;BME280;13413;52.336;21.200;2023-01-25T07:47:55;102340.42;;;3.15;61.36
25510;BME280;13413;52.336;21.200;2023-01-25T07:50:49;102337.51;;;3.14;61.49
25510;BME280;13413;52.336;21.200;2023-01-25T07:53:58;102335.30;;;3.16;61.58
25510;BME280;13413;52.336;21.200;2023-01-25T07:56:52;102338.35;;;3.28;61.69
25510;BME280;13413;52.336;21.200;2023-01-25T07:59:46;102339.39;;;3.38;61.41
25510;BME280;13413;52.336;21.200;2023-01-25T08:02:40;102337.60;;;3.39;61.30
25510;BME280;13413;52.336;21.200;2023-01-25T08:05:34;102337.85;;;3.44;61.31
25510;BME280;13413;52.336;21.200;2023-01-25T08:08:28;102338.45;;;3.52;61.42
25510;BME280;13413;52.336;21.200;2023-01-25T08:11:24;102334.66;;;3.51;60.90
25510;BME280;13413;52.336;21.200;2023-01-25T08:14:18;102332.48;;;3.43;60.78
25510;BME280;13413;52.336;21.200;2023-01-25T08:17:12;102331.23;;;3.37;60.61
25510;BME280;13413;52.336;21.200;2023-01-25T08:20:05;102324.52;;;3.31;60.74
25510;BME280;13413;52.336;21.200;2023-01-25T08:28:32;102318.29;;;3.40;61.00
25510;BME280;13413;52.336;21.200;2023-01-25T08:31:28;102314.38;;;3.35;60.82
25510;BME280;13413;52.336;21.200;2023-01-25T08:34:23;102313.41;;;3.34;60.80
25510;BME280;13413;52.336;21.200;2023-01-25T08:37:18;102310.10;;;3.33;60.72
25510;BME280;13413;52.336;21.200;2023-01-25T08:40:13;102311.63;;;3.37;61.16
25510;BME280;13413;52.336;21.200;2023-01-25T08:43:07;102310.02;;;3.41;60.90
25510;BME280;13413;52.336;21.200;2023-01-25T08:46:01;102311.84;;;3.40;60.61
25510;BME280;13413;52.336;21.200;2023-01-25T08:48:54;102305.05;;;3.29;60.55
25510;BME280;13413;52.336;21.200;2023-01-25T08:51:49;102303.98;;;3.20;60.73
25510;BME280;13413;52.336;21.200;2023-01-25T08:54:43;102302.81;;;3.19;60.86
25510;BME280;13413;52.336;21.200;2023-01-25T08:57:37;102301.02;;;3.23;61.21
25510;BME280;13413;52.336;21.200;2023-01-25T09:00:32;102293.43;;;3.34;61.25
25510;BME280;13413;52.336;21.200;2023-01-25T09:03:26;102290.80;;;3.34;60.41
25510;BME280;13413;52.336;21.200;2023-01-25T09:06:20;102297.08;;;3.32;60.85
25510;BME280;13413;52.336;21.200;2023-01-25T09:09:14;102291.33;;;3.31;60.64
25510;BME280;13413;52.336;21.200;2023-01-25T09:12:09;102290.38;;;3.33;60.90
25510;BME280;13413;52.336;21.200;2023-01-25T09:15:03;102288.15;;;3.35;60.92
25510;BME280;13413;52.336;21.200;2023-01-25T09:17:58;102282.80;;;3.40;60.59
25510;BME280;13413;52.336;21.200;2023-01-25T09:20:52;102280.01;;;3.34;60.73
25510;BME280;13413;52.336;21.200;2023-01-25T09:23:48;102275.43;;;3.31;60.82
25510;BME280;13413;52.336;21.200;2023-01-25T09:26:43;102273.59;;;3.36;60.70
25510;BME280;13413;52.336;21.200;2023-01-25T09:29:38;102269.36;;;3.33;60.71
25510;BME280;13413;52.336;21.200;2023-01-25T09:32:31;102263.01;;;3.31;60.71
25510;BME280;13413;52.336;21.200;2023-01-25T09:35:26;102256.23;;;3.33;60.76
25510;BME280;13413;52.336;21.200;2023-01-25T09:38:20;102254.44;;;3.37;60.87
25510;BME280;13413;52.336;21.200;2023-01-25T09:41:25;102247.77;;;3.32;60.64
25510;BME280;13413;52.336;21.200;2023-01-25T09:44:38;102240.59;;;3.32;60.61
25510;BME280;13413;52.336;21.200;2023-01-25T09:47:43;102244.70;;;3.40;60.67
25510;BME280;13413;52.336;21.200;2023-01-25T09:50:44;102246.12;;;3.39;60.28
25510;BME280;13413;52.336;21.200;2023-01-25T09:53:49;102247.35;;;3.36;60.43
25510;BME280;13413;52.336;21.200;2023-01-25T09:56:44;102242.44;;;3.33;60.13
25510;BME280;13413;52.336;21.200;2023-01-25T09:59:42;102246.92;;;3.34;60.29
25510;BME280;13413;52.336;21.200;2023-01-25T10:02:42;102243.95;;;3.31;60.32
25510;BME280;13413;52.336;21.200;2023-01-25T10:05:43;102237.12;;;3.31;60.23
25510;BME280;13413;52.336;21.200;2023-01-25T10:08:41;102235.30;;;3.36;60.27
25510;BME280;13413;52.336;21.200;2023-01-25T10:11:39;102234.87;;;3.40;60.63
25510;BME280;13413;52.336;21.200;2023-01-25T10:14:33;102229.20;;;3.48;60.50
25510;BME280;13413;52.336;21.200;2023-01-25T10:17:34;102223.77;;;3.42;59.86
25510;BME280;13413;52.336;21.200;2023-01-25T10:20:33;102217.56;;;3.31;60.07
25510;BME280;13413;52.336;21.200;2023-01-25T10:23:49;102212.02;;;3.33;60.50
25510;BME280;13413;52.336;21.200;2023-01-25T10:26:56;102203.60;;;3.43;60.63
25510;BME280;13413;52.336;21.200;2023-01-25T10:29:53;102199.77;;;3.55;60.46
25510;BME280;13413;52.336;21.200;2023-01-25T10:32:50;102191.29;;;3.56;60.22
25510;BME280;13413;52.336;21.200;2023-01-25T10:35:46;102191.23;;;3.54;60.21
25510;BME280;13413;52.336;21.200;2023-01-25T10:38:39;102187.61;;;3.60;60.28
25510;BME280;13413;52.336;21.200;2023-01-25T10:44:15;102180.70;;;3.61;59.96
25510;BME280;13413;52.336;21.200;2023-01-25T10:47:14;102179.50;;;3.67;60.46
25510;BME280;13413;52.336;21.200;2023-01-25T10:50:11;102176.70;;;3.76;60.25
25510;BME280;13413;52.336;21.200;2023-01-25T10:53:28;102171.63;;;3.76;60.05
25510;BME280;13413;52.336;21.200;2023-01-25T10:56:26;102159.71;;;3.70;60.09
25510;BME280;13413;52.336;21.200;2023-01-25T10:59:24;102155.79;;;3.75;60.37
25510;BME280;13413;52.336;21.200;2023-01-25T11:02:39;102150.43;;;3.80;60.24
25510;BME280;13413;52.336;21.200;2023-01-25T11:05:35;102145.21;;;3.73;59.70
25510;BME280;13413;52.336;21.200;2023-01-25T11:08:35;102142.05;;;3.61;59.92
25510;BME280;13413;52.336;21.200;2023-01-25T11:11:35;102129.73;;;3.53;59.71
25510;BME280;13413;52.336;21.200;2023-01-25T11:14:31;102130.80;;;3.56;60.09
25510;BME280;13413;52.336;21.200;2023-01-25T11:17:28;102125.64;;;3.48;59.76
25510;BME280;13413;52.336;21.200;2023-01-25T11:20:23;102119.31;;;3.40;60.10
25510;BME280;13413;52.336;21.200;2023-01-25T11:23:25;102118.80;;;3.43;59.96
25510;BME280;13413;52.336;21.200;2023-01-25T11:26:20;102116.30;;;3.50;60.60
25510;BME280;13413;52.336;21.200;2023-01-25T11:29:19;102113.84;;;3.59;60.37
25510;BME280;13413;52.336;21.200;2023-01-25T11:32:18;102118.08;;;3.67;60.30
25510;BME280;13413;52.336;21.200;2023-01-25T11:35:17;102115.09;;;3.70;60.14
25510;BME280;13413;52.336;21.200;2023-01-25T11:38:19;102113.67;;;3.74;60.40
25510;BME280;13413;52.336;21.200;2023-01-25T11:41:19;102115.13;;;3.76;60.09
25510;BME280;13413;52.336;21.200;2023-01-25T11:44:43;102108.86;;;3.79;60.12
25510;BME280;13413;52.336;21.200;2023-01-25T11:47:51;102101.25;;;3.77;60.06
25510;BME280;13413;52.336;21.200;2023-01-25T11:50:52;102096.70;;;3.77;59.92
25510;BME280;13413;52.336;21.200;2023-01-25T11:54:31;102095.92;;;3.75;59.80
25510;BME280;13413;52.336;21.200;2023-01-25T11:57:45;102090.14;;;3.66;59.82
25510;BME280;13413;52.336;21.200;2023-01-25T12:00:52;102083.08;;;3.68;60.32
25510;BME280;13413;52.336;21.200;2023-01-25T12:07:32;102065.94;;;3.85;60.20
25510;BME280;13413;52.336;21.200;2023-01-25T12:10:37;102061.30;;;3.87;59.95
25510;BME280;13413;52.336;21.200;2023-01-25T12:13:39;102061.83;;;3.81;59.97
25510;BME280;13413;52.336;21.200;2023-01-25T12:16:48;102057.84;;;3.86;59.92
25510;BME280;13413;52.336;21.200;2023-01-25T12:19:59;102057.23;;;3.93;60.33
25510;BME280;13413;52.336;21.200;2023-01-25T12:23:13;102056.83;;;4.00;60.23
25510;BME280;13413;52.336;21.200;2023-01-25T12:26:20;102046.61;;;3.98;59.81
25510;BME280;13413;52.336;21.200;2023-01-25T12:29:22;102038.79;;;3.92;59.82
25510;BME280;13413;52.336;21.200;2023-01-25T12:32:23;102040.62;;;3.87;59.63
25510;BME280;13413;52.336;21.200;2023-01-25T12:35:27;102042.35;;;3.88;60.03
25510;BME280;13413;52.336;21.200;2023-01-25T12:38:35;102037.00;;;3.92;59.87
25510;BME280;13413;52.336;21.200;2023-01-25T12:41:37;102036.80;;;3.96;60.13
25510;BME280;13413;52.336;21.200;2023-01-25T12:44:36;102039.73;;;4.02;59.94
25510;BME280;13413;52.336;21.200;2023-01-25T12:50:44;102034.05;;;4.09;60.11
25510;BME280;13413;52.336;21.200;2023-01-25T12:53:38;102031.73;;;4.12;59.90
25510;BME280;13413;52.336;21.200;2023-01-25T12:56:33;102031.41;;;4.15;59.93
25510;BME280;13413;52.336;21.200;2023-01-25T13:05:07;102018.86;;;4.28;60.07
25510;BME280;13413;52.336;21.200;2023-01-25T13:08:09;102012.74;;;4.25;59.59
25510;BME280;13413;52.336;21.200;2023-01-25T13:11:10;102012.46;;;4.24;59.59
25510;BME280;13413;52.336;21.200;2023-01-25T13:14:28;102004.37;;;4.22;59.64
25510;BME280;13413;52.336;21.200;2023-01-25T13:17:31;101997.55;;;4.25;59.78
25510;BME280;13413;52.336;21.200;2023-01-25T13:20:47;101992.65;;;4.25;59.60
25510;BME280;13413;52.336;21.200;2023-01-25T13:24:06;101987.56;;;4.22;59.36
25510;BME280;13413;52.336;21.200;2023-01-25T13:27:07;101981.55;;;4.08;59.46
25510;BME280;13413;52.336;21.200;2023-01-25T13:30:30;101982.67;;;4.02;59.36
25510;BME280;13413;52.336;21.200;2023-01-25T13:33:33;101978.42;;;4.00;59.81
25510;BME280;13413;52.336;21.200;2023-01-25T13:37:12;101972.68;;;3.99;59.47
25510;BME280;13413;52.336;21.200;2023-01-25T13:40:29;101968.77;;;3.94;59.87
25510;BME280;13413;52.336;21.200;2023-01-25T13:43:22;101968.41;;;4.00;59.85
25510;BME280;13413;52.336;21.200;2023-01-25T13:46:18;101967.48;;;4.01;59.58
25510;BME280;13413;52.336;21.200;2023-01-25T13:49:21;101965.89;;;4.04;59.88
25510;BME280;13413;52.336;21.200;2023-01-25T13:52:18;101956.73;;;4.08;59.82
25510;BME280;13413;52.336;21.200;2023-01-25T13:55:18;101950.60;;;4.11;59.66
25510;BME280;13413;52.336;21.200;2023-01-25T13:58:17;101941.64;;;4.03;59.40
25510;BME280;13413;52.336;21.200;2023-01-25T14:01:16;101942.64;;;3.95;59.33
25510;BME280;13413;52.336;21.200;2023-01-25T14:04:11;101940.04;;;3.89;59.74
25510;BME280;13413;52.336;21.200;2023-01-25T14:07:04;101936.86;;;4.01;59.87
25510;BME280;13413;52.336;21.200;2023-01-25T14:09:57;101940.20;;;4.04;59.77
25510;BME280;13413;52.336;21.200;2023-01-25T14:12:52;101937.49;;;4.05;59.99
25510;BME280;13413;52.336;21.200;2023-01-25T14:15:54;101939.83;;;4.12;59.97
25510;BME280;13413;52.336;21.200;2023-01-25T14:18:48;101935.90;;;4.11;59.88
25510;BME280;13413;52.336;21.200;2023-01-25T14:21:41;101936.18;;;4.06;59.50
25510;BME280;13413;52.336;21.200;2023-01-25T14:24:34;101925.92;;;3.99;59.66
25510;BME280;13413;52.336;21.200;2023-01-25T14:27:27;101921.61;;;4.04;59.72
25510;BME280;13413;52.336;21.200;2023-01-25T14:30:22;101916.17;;;4.04;59.40
25510;BME280;13413;52.336;21.200;2023-01-25T14:33:17;101910.27;;;4.06;59.56
25510;BME280;13413;52.336;21.200;2023-01-25T14:36:13;101908.27;;;4.05;59.65
25510;BME280;13413;52.336;21.200;2023-01-25T14:39:13;101907.95;;;4.02;59.45
25510;BME280;13413;52.336;21.200;2023-01-25T14:42:09;101904.36;;;3.98;59.78
25510;BME280;13413;52.336;21.200;2023-01-25T14:45:03;101898.91;;;4.01;59.88
25510;BME280;13413;52.336;21.200;2023-01-25T14:47:58;101894.73;;;3.98;59.76
25510;BME280;13413;52.336;21.200;2023-01-25T14:50:49;101890.39;;;4.02;59.96
25510;BME280;13413;52.336;21.200;2023-01-25T14:58:27;101884.73;;;4.12;59.45
25510;BME280;13413;52.336;21.200;2023-01-25T15:01:27;101883.33;;;4.04;59.40
25510;BME280;13413;52.336;21.200;2023-01-25T15:04:22;101876.09;;;4.02;59.67
25510;BME280;13413;52.336;21.200;2023-01-25T15:07:33;101872.23;;;4.07;59.83
25510;BME280;13413;52.336;21.200;2023-01-25T15:10:30;101864.52;;;4.05;59.57
25510;BME280;13413;52.336;21.200;2023-01-25T15:13:28;101857.76;;;3.98;59.50
25510;BME280;13413;52.336;21.200;2023-01-25T15:16:33;101859.11;;;4.01;59.77
25510;BME280;13413;52.336;21.200;2023-01-25T15:19:28;101854.21;;;4.01;59.61
25510;BME280;13413;52.336;21.200;2023-01-25T15:22:22;101845.67;;;4.04;59.72
25510;BME280;13413;52.336;21.200;2023-01-25T15:25:17;101841.80;;;4.01;59.63
25510;BME280;13413;52.336;21.200;2023-01-25T15:28:12;101843.67;;;4.00;59.89
25510;BME280;13413;52.336;21.200;2023-01-25T15:31:08;101843.84;;;4.02;59.79
25510;BME280;13413;52.336;21.200;2023-01-25T15:34:04;101840.84;;;4.08;59.87
25510;BME280;13413;52.336;21.200;2023-01-25T15:36:59;101841.18;;;4.11;59.67
25510;BME280;13413;52.336;21.200;2023-01-25T15:39:53;101834.88;;;4.11;59.91
25510;BME280;13413;52.336;21.200;2023-01-25T15:42:47;101834.54;;;4.14;59.71
25510;BME280;13413;52.336;21.200;2023-01-25T15:45:42;101824.20;;;4.05;59.46
25510;BME280;13413;52.336;21.200;2023-01-25T15:48:40;101821.34;;;3.99;59.67
25510;BME280;13413;52.336;21.200;2023-01-25T15:51:35;101816.64;;;4.01;59.68
25510;BME280;13413;52.336;21.200;2023-01-25T15:54:29;101814.67;;;4.04;59.80
25510;BME280;13413;52.336;21.200;2023-01-25T15:57:26;101809.82;;;4.01;59.76
25510;BME280;13413;52.336;21.200;2023-01-25T16:00:22;101814.71;;;4.01;59.72
25510;BME280;13413;52.336;21.200;2023-01-25T16:03:16;101814.04;;;4.03;60.08
25510;BME280;13413;52.336;21.200;2023-01-25T16:06:26;101815.16;;;4.10;60.04
25510;BME280;13413;52.336;21.200;2023-01-25T16:09:23;101811.70;;;4.09;59.87
25510;BME280;13413;52.336;21.200;2023-01-25T16:12:18;101809.04;;;4.05;59.92
25510;BME280;13413;52.336;21.200;2023-01-25T16:15:12;101801.63;;;4.03;59.53
25510;BME280;13413;52.336;21.200;2023-01-25T16:18:08;101803.30;;;3.93;59.85